sensor_id;sensor_type;location;lat;lon;timestamp;temperature;humidity
25328;DHT22;13279;51.300;12.394;2023-03-03T00:00:15;0.90;99.90
25328;DHT22;13279;51.300;12.394;2023-03-03T00:02:57;0.90;99.90
25328;DHT22;13279;51.300;12.394;2023-03-03T00:05:27;0.90;99.90
25328;DHT22;13279;51.300;12.394;2023-03-03T00:07:55;0.80;99.90
25328;DHT22;13279;51.300;12.394;2023-03-03T00:10:23;0.80;99.90
25328;DHT22;13279;51.300;12.394;2023-03-03T00:12:51;0.80;99.90
25328;DHT22;13279;51.300;12.394;2023-03-03T00:15:21;0.80;99.90
25328;DHT22;13279;51.300;12.394;2023-03-03T00:17:50;0.80;99.90
25328;DHT22;13279;51.300;12.394;2023-03-03T00:20:34;0.80;99.90
25328;DHT22;13279;51.300;12.394;2023-03-03T00:23:27;0.70;99.90
25328;DHT22;13279;51.300;12.394;2023-03-03T00:25:59;0.70;99.90
25328;DHT22;13279;51.300;12.394;2023-03-03T00:31:34;0.60;99.90
25328;DHT22;13279;51.300;12.394;2023-03-03T00:34:23;0.60;99.90
25328;DHT22;13279;51.300;12.394;2023-03-03T00:36:56;0.60;99.90
25328;DHT22;13279;51.300;12.394;2023-03-03T00:39:40;0.50;99.90
25328;DHT22;13279;51.300;12.394;2023-03-03T00:42:13;0.50;99.90
25328;DHT22;13279;51.300;12.394;2023-03-03T00:44:43;0.50;99.90
25328;DHT22;13279;51.300;12.394;2023-03-03T00:47:27;0.50;99.90
25328;DHT22;13279;51.300;12.394;2023-03-03T00:50:32;0.50;99.90
25328;DHT22;13279;51.300;12.394;2023-03-03T00:53:03;0.50;99.90
25328;DHT22;13279;51.300;12.394;2023-03-03T00:55:34;0.50;99.90
25328;DHT22;13279;51.300;12.394;2023-03-03T00:58:03;0.50;99.90
25328;DHT22;13279;51.300;12.394;2023-03-03T01:00:35;0.50;99.90
25328;DHT22;13279;51.300;12.394;2023-03-03T01:03:06;0.50;99.90
25328;DHT22;13279;51.300;12.394;2023-03-03T01:05:34;0.50;99.90
25328;DHT22;13279;51.300;12.394;2023-03-03T01:08:03;0.60;99.90
25328;DHT22;13279;51.300;12.394;2023-03-03T01:10:35;0.50;99.90
25328;DHT22;13279;51.300;12.394;2023-03-03T01:13:03;0.50;99.90
25328;DHT22;13279;51.300;12.394;2023-03-03T01:15:31;0.50;99.90
25328;DHT22;13279;51.300;12.394;2023-03-03T01:17:59;0.50;99.90
25328;DHT22;13279;51.300;12.394;2023-03-03T01:20:26;0.50;99.90
25328;DHT22;13279;51.300;12.394;2023-03-03T01:22:54;0.50;99.90
25328;DHT22;13279;51.300;12.394;2023-03-03T01:25:21;0.50;99.90
25328;DHT22;13279;51.300;12.394;2023-03-03T01:27:50;0.50;99.90
25328;DHT22;13279;51.300;12.394;2023-03-03T01:30:17;0.50;99.90
25328;DHT22;13279;51.300;12.394;2023-03-03T01:32:45;0.60;99.90
25328;DHT22;13279;51.300;12.394;2023-03-03T01:35:13;0.50;99.90
25328;DHT22;13279;51.300;12.394;2023-03-03T01:37:40;0.50;99.90
25328;DHT22;13279;51.300;12.394;2023-03-03T01:40:16;0.50;99.90
25328;DHT22;13279;51.300;12.394;2023-03-03T01:42:44;0.40;99.90
25328;DHT22;13279;51.300;12.394;2023-03-03T01:45:19;0.40;99.90
25328;DHT22;13279;51.300;12.394;2023-03-03T01:47:55;0.40;99.90
25328;DHT22;13279;51.300;12.394;2023-03-03T01:50:39;0.40;99.90
25328;DHT22;13279;51.300;12.394;2023-03-03T01:53:13;0.40;99.90
25328;DHT22;13279;51.300;12.394;2023-03-03T01:55:43;0.40;99.90
25328;DHT22;13279;51.300;12.394;2023-03-03T01:58:15;0.40;99.90
25328;DHT22;13279;51.300;12.394;2023-03-03T02:00:48;0.40;99.90
25328;DHT22;13279;51.300;12.394;2023-03-03T02:03:19;0.40;99.90
25328;DHT22;13279;51.300;12.394;2023-03-03T02:05:50;0.40;99.90
25328;DHT22;13279;51.300;12.394;2023-03-03T02:08:22;0.40;99.90
25328;DHT22;13279;51.300;12.394;2023-03-03T02:10:54;0.40;99.90
25328;DHT22;13279;51.300;12.394;2023-03-03T02:13:24;0.40;99.90
25328;DHT22;13279;51.300;12.394;2023-03-03T02:15:55;0.40;99.90
25328;DHT22;13279;51.300;12.394;2023-03-03T02:18:24;0.40;99.90
25328;DHT22;13279;51.300;12.394;2023-03-03T02:20:56;0.30;99.90
25328;DHT22;13279;51.300;12.394;2023-03-03T02:23:29;0.30;99.90
25328;DHT22;13279;51.300;12.394;2023-03-03T02:26:09;0.30;99.90
25328;DHT22;13279;51.300;12.394;2023-03-03T02:28:39;0.20;99.90
25328;DHT22;13279;51.300;12.394;2023-03-03T02:31:11;0.30;99.90
25328;DHT22;13279;51.300;12.394;2023-03-03T02:33:44;0.20;99.90
25328;DHT22;13279;51.300;12.394;2023-03-03T02:36:15;0.20;99.90
25328;DHT22;13279;51.300;12.394;2023-03-03T02:38:47;0.20;99.90
25328;DHT22;13279;51.300;12.394;2023-03-03T02:41:28;0.20;99.90
25328;DHT22;13279;51.300;12.394;2023-03-03T02:44:01;0.10;99.90
25328;DHT22;13279;51.300;12.394;2023-03-03T02:46:32;0.00;99.90
25328;DHT22;13279;51.300;12.394;2023-03-03T02:49:01;0.00;99.90
25328;DHT22;13279;51.300;12.394;2023-03-03T02:51:29;0.00;99.90
25328;DHT22;13279;51.300;12.394;2023-03-03T02:53:57;0.00;99.90
25328;DHT22;13279;51.300;12.394;2023-03-03T02:56:28;0.10;99.90
25328;DHT22;13279;51.300;12.394;2023-03-03T02:58:56;0.00;99.90
25328;DHT22;13279;51.300;12.394;2023-03-03T03:01:23;0.00;99.90
25328;DHT22;13279;51.300;12.394;2023-03-03T03:03:53;0.10;99.90
25328;DHT22;13279;51.300;12.394;2023-03-03T03:06:21;0.10;99.90
25328;DHT22;13279;51.300;12.394;2023-03-03T03:08:49;0.00;99.90
25328;DHT22;13279;51.300;12.394;2023-03-03T03:11:17;0.00;99.90
25328;DHT22;13279;51.300;12.394;2023-03-03T03:13:46;-0.10;99.90
25328;DHT22;13279;51.300;12.394;2023-03-03T03:16:14;-0.10;99.90
25328;DHT22;13279;51.300;12.394;2023-03-03T03:18:41;-0.10;99.90
25328;DHT22;13279;51.300;12.394;2023-03-03T03:21:10;-0.10;99.90
25328;DHT22;13279;51.300;12.394;2023-03-03T03:23:39;-0.10;99.90
25328;DHT22;13279;51.300;12.394;2023-03-03T03:26:08;-0.10;99.90
25328;DHT22;13279;51.300;12.394;2023-03-03T03:28:35;-0.10;99.90
25328;DHT22;13279;51.300;12.394;2023-03-03T03:31:07;-0.10;99.90
25328;DHT22;13279;51.300;12.394;2023-03-03T03:33:35;-0.10;99.90
25328;DHT22;13279;51.300;12.394;2023-03-03T03:36:04;-0.10;99.90
25328;DHT22;13279;51.300;12.394;2023-03-03T03:38:34;-0.20;99.90
25328;DHT22;13279;51.300;12.394;2023-03-03T03:41:05;-0.20;99.90
25328;DHT22;13279;51.300;12.394;2023-03-03T03:43:34;-0.30;99.90
25328;DHT22;13279;51.300;12.394;2023-03-03T03:46:02;-0.30;99.90
25328;DHT22;13279;51.300;12.394;2023-03-03T03:48:32;-0.30;99.90
25328;DHT22;13279;51.300;12.394;2023-03-03T03:51:00;-0.30;99.90
25328;DHT22;13279;51.300;12.394;2023-03-03T03:53:30;-0.30;99.90
25328;DHT22;13279;51.300;12.394;2023-03-03T03:55:57;-0.20;99.90
25328;DHT22;13279;51.300;12.394;2023-03-03T03:58:25;-0.20;99.90
25328;DHT22;13279;51.300;12.394;2023-03-03T04:01:01;-0.30;99.90
25328;DHT22;13279;51.300;12.394;2023-03-03T04:03:31;-0.30;99.90
25328;DHT22;13279;51.300;12.394;2023-03-03T04:05:58;-0.30;99.90
25328;DHT22;13279;51.300;12.394;2023-03-03T04:08:26;-0.30;99.90
25328;DHT22;13279;51.300;12.394;2023-03-03T04:10:54;-0.30;99.90
25328;DHT22;13279;51.300;12.394;2023-03-03T04:13:23;-0.20;99.90
25328;DHT22;13279;51.300;12.394;2023-03-03T04:15:54;-0.20;99.90
25328;DHT22;13279;51.300;12.394;2023-03-03T04:18:21;-0.10;99.90
25328;DHT22;13279;51.300;12.394;2023-03-03T04:20:52;-0.10;99.90
25328;DHT22;13279;51.300;12.394;2023-03-03T04:23:21;-0.10;99.90
25328;DHT22;13279;51.300;12.394;2023-03-03T04:25:49;-0.10;99.90
25328;DHT22;13279;51.300;12.394;2023-03-03T04:28:17;-0.10;99.90
25328;DHT22;13279;51.300;12.394;2023-03-03T04:30:45;-0.10;99.90
25328;DHT22;13279;51.300;12.394;2023-03-03T04:33:15;-0.10;99.90
25328;DHT22;13279;51.300;12.394;2023-03-03T04:35:43;-0.20;99.90
25328;DHT22;13279;51.300;12.394;2023-03-03T04:38:12;-0.10;99.90
25328;DHT22;13279;51.300;12.394;2023-03-03T04:40:40;-0.10;99.90
25328;DHT22;13279;51.300;12.394;2023-03-03T04:43:09;-0.10;99.90
25328;DHT22;13279;51.300;12.394;2023-03-03T04:45:37;-0.10;99.90
25328;DHT22;13279;51.300;12.394;2023-03-03T04:48:05;0.00;99.90
25328;DHT22;13279;51.300;12.394;2023-03-03T04:50:34;-0.10;99.90
25328;DHT22;13279;51.300;12.394;2023-03-03T04:53:01;-0.10;99.90
25328;DHT22;13279;51.300;12.394;2023-03-03T04:55:31;-0.10;99.90
25328;DHT22;13279;51.300;12.394;2023-03-03T04:57:59;-0.10;99.90
25328;DHT22;13279;51.300;12.394;2023-03-03T05:00:27;-0.10;99.90
25328;DHT22;13279;51.300;12.394;2023-03-03T05:02:54;0.00;99.90
25328;DHT22;13279;51.300;12.394;2023-03-03T05:05:23;0.00;99.90
25328;DHT22;13279;51.300;12.394;2023-03-03T05:07:50;0.00;99.90
25328;DHT22;13279;51.300;12.394;2023-03-03T05:10:18;0.00;99.90
25328;DHT22;13279;51.300;12.394;2023-03-03T05:12:47;0.00;99.90
25328;DHT22;13279;51.300;12.394;2023-03-03T05:15:15;-0.10;99.90
25328;DHT22;13279;51.300;12.394;2023-03-03T05:17:42;0.00;99.90
25328;DHT22;13279;51.300;12.394;2023-03-03T05:20:11;-0.10;99.90
25328;DHT22;13279;51.300;12.394;2023-03-03T05:22:39;-0.10;99.90
25328;DHT22;13279;51.300;12.394;2023-03-03T05:25:07;-0.10;99.90
25328;DHT22;13279;51.300;12.394;2023-03-03T05:27:37;0.00;99.90
25328;DHT22;13279;51.300;12.394;2023-03-03T05:30:07;-0.10;99.90
25328;DHT22;13279;51.300;12.394;2023-03-03T05:32:35;-0.10;99.90
25328;DHT22;13279;51.300;12.394;2023-03-03T05:35:02;-0.10;99.90
25328;DHT22;13279;51.300;12.394;2023-03-03T05:37:30;-0.10;99.90
25328;DHT22;13279;51.300;12.394;2023-03-03T05:39:58;-0.10;99.90
25328;DHT22;13279;51.300;12.394;2023-03-03T05:42:26;-0.10;99.90
25328;DHT22;13279;51.300;12.394;2023-03-03T05:44:53;-0.10;99.90
25328;DHT22;13279;51.300;12.394;2023-03-03T05:47:22;-0.10;99.90
25328;DHT22;13279;51.300;12.394;2023-03-03T05:49:49;-0.10;99.90
25328;DHT22;13279;51.300;12.394;2023-03-03T05:52:17;-0.10;99.90
25328;DHT22;13279;51.300;12.394;2023-03-03T05:54:44;0.00;99.90
25328;DHT22;13279;51.300;12.394;2023-03-03T05:57:12;0.00;99.90
25328;DHT22;13279;51.300;12.394;2023-03-03T05:59:39;0.00;99.90
25328;DHT22;13279;51.300;12.394;2023-03-03T06:02:06;0.00;99.90
25328;DHT22;13279;51.300;12.394;2023-03-03T06:04:35;0.00;99.90
25328;DHT22;13279;51.300;12.394;2023-03-03T06:07:03;0.00;99.90
25328;DHT22;13279;51.300;12.394;2023-03-03T06:09:31;0.10;99.90
25328;DHT22;13279;51.300;12.394;2023-03-03T06:11:58;0.00;99.90
25328;DHT22;13279;51.300;12.394;2023-03-03T06:14:25;0.00;99.90
25328;DHT22;13279;51.300;12.394;2023-03-03T06:16:53;0.10;99.90
25328;DHT22;13279;51.300;12.394;2023-03-03T06:19:22;0.00;99.90
25328;DHT22;13279;51.300;12.394;2023-03-03T06:21:52;0.00;99.90
25328;DHT22;13279;51.300;12.394;2023-03-03T06:24:19;0.00;99.90
25328;DHT22;13279;51.300;12.394;2023-03-03T06:26:46;0.00;99.90
25328;DHT22;13279;51.300;12.394;2023-03-03T06:29:13;0.00;99.90
25328;DHT22;13279;51.300;12.394;2023-03-03T06:31:41;0.10;99.90
25328;DHT22;13279;51.300;12.394;2023-03-03T06:34:09;0.10;99.90
25328;DHT22;13279;51.300;12.394;2023-03-03T06:36:39;0.10;99.90
25328;DHT22;13279;51.300;12.394;2023-03-03T06:39:10;0.00;99.90
25328;DHT22;13279;51.300;12.394;2023-03-03T06:41:38;0.00;99.90
25328;DHT22;13279;51.300;12.394;2023-03-03T06:44:05;0.00;99.90
25328;DHT22;13279;51.300;12.394;2023-03-03T06:46:33;0.00;99.90
25328;DHT22;13279;51.300;12.394;2023-03-03T06:49:03;0.00;99.90
25328;DHT22;13279;51.300;12.394;2023-03-03T06:51:32;0.00;99.90
25328;DHT22;13279;51.300;12.394;2023-03-03T06:54:08;-0.10;99.90
25328;DHT22;13279;51.300;12.394;2023-03-03T06:56:38;-0.20;99.90
25328;DHT22;13279;51.300;12.394;2023-03-03T06:59:10;-0.20;99.90
25328;DHT22;13279;51.300;12.394;2023-03-03T07:01:39;-0.20;99.90
25328;DHT22;13279;51.300;12.394;2023-03-03T07:04:23;-0.20;99.90
25328;DHT22;13279;51.300;12.394;2023-03-03T07:06:54;-0.20;99.90
25328;DHT22;13279;51.300;12.394;2023-03-03T07:09:23;-0.20;99.90
25328;DHT22;13279;51.300;12.394;2023-03-03T07:11:54;-0.20;99.90
25328;DHT22;13279;51.300;12.394;2023-03-03T07:14:22;-0.20;99.90
25328;DHT22;13279;51.300;12.394;2023-03-03T07:16:57;-0.10;99.90
25328;DHT22;13279;51.300;12.394;2023-03-03T07:19:31;-0.10;99.90
25328;DHT22;13279;51.300;12.394;2023-03-03T07:22:01;-0.10;99.90
25328;DHT22;13279;51.300;12.394;2023-03-03T07:24:33;-0.10;99.90
25328;DHT22;13279;51.300;12.394;2023-03-03T07:27:11;-0.10;99.90
25328;DHT22;13279;51.300;12.394;2023-03-03T07:29:41;-0.20;99.90
25328;DHT22;13279;51.300;12.394;2023-03-03T07:32:24;-0.10;99.90
25328;DHT22;13279;51.300;12.394;2023-03-03T07:35:01;-0.10;99.90
25328;DHT22;13279;51.300;12.394;2023-03-03T07:37:40;-0.10;99.90
25328;DHT22;13279;51.300;12.394;2023-03-03T07:40:28;0.00;99.90
25328;DHT22;13279;51.300;12.394;2023-03-03T07:42:59;-0.10;99.90
25328;DHT22;13279;51.300;12.394;2023-03-03T07:45:37;-0.10;99.90
25328;DHT22;13279;51.300;12.394;2023-03-03T07:48:13;0.00;99.90
25328;DHT22;13279;51.300;12.394;2023-03-03T07:50:43;0.00;99.90
25328;DHT22;13279;51.300;12.394;2023-03-03T07:53:19;0.00;99.90
25328;DHT22;13279;51.300;12.394;2023-03-03T07:55:48;0.00;99.90
25328;DHT22;13279;51.300;12.394;2023-03-03T07:58:21;0.00;99.90
25328;DHT22;13279;51.300;12.394;2023-03-03T08:03:52;-0.10;99.90
25328;DHT22;13279;51.300;12.394;2023-03-03T08:06:35;-0.10;99.90
25328;DHT22;13279;51.300;12.394;2023-03-03T08:12:35;-0.10;99.90
25328;DHT22;13279;51.300;12.394;2023-03-03T08:15:18;0.00;99.90
25328;DHT22;13279;51.300;12.394;2023-03-03T08:17:49;0.00;99.90
25328;DHT22;13279;51.300;12.394;2023-03-03T08:20:41;0.10;99.90
25328;DHT22;13279;51.300;12.394;2023-03-03T08:23:10;0.20;99.90
25328;DHT22;13279;51.300;12.394;2023-03-03T08:25:38;0.20;99.90
25328;DHT22;13279;51.300;12.394;2023-03-03T08:28:07;0.20;99.90
25328;DHT22;13279;51.300;12.394;2023-03-03T08:30:36;0.20;99.90
25328;DHT22;13279;51.300;12.394;2023-03-03T08:33:04;0.20;99.90
25328;DHT22;13279;51.300;12.394;2023-03-03T08:35:31;0.30;99.90
25328;DHT22;13279;51.300;12.394;2023-03-03T08:37:59;0.30;99.90
25328;DHT22;13279;51.300;12.394;2023-03-03T08:40:26;0.40;99.90
25328;DHT22;13279;51.300;12.394;2023-03-03T08:42:54;0.40;99.90
25328;DHT22;13279;51.300;12.394;2023-03-03T08:45:23;0.40;99.90
25328;DHT22;13279;51.300;12.394;2023-03-03T08:47:52;0.40;99.90
25328;DHT22;13279;51.300;12.394;2023-03-03T08:50:20;0.40;99.90
25328;DHT22;13279;51.300;12.394;2023-03-03T08:52:48;0.40;99.90
25328;DHT22;13279;51.300;12.394;2023-03-03T08:55:16;0.50;99.90
25328;DHT22;13279;51.300;12.394;2023-03-03T08:57:43;0.50;99.90
25328;DHT22;13279;51.300;12.394;2023-03-03T09:00:13;0.50;99.90
25328;DHT22;13279;51.300;12.394;2023-03-03T09:02:41;0.50;99.90
25328;DHT22;13279;51.300;12.394;2023-03-03T09:05:10;0.60;99.90
25328;DHT22;13279;51.300;12.394;2023-03-03T09:07:39;0.60;99.90
25328;DHT22;13279;51.300;12.394;2023-03-03T09:10:07;0.60;99.90
25328;DHT22;13279;51.300;12.394;2023-03-03T09:12:38;0.70;99.90
25328;DHT22;13279;51.300;12.394;2023-03-03T09:15:17;0.70;99.90
25328;DHT22;13279;51.300;12.394;2023-03-03T09:17:46;0.60;99.90
25328;DHT22;13279;51.300;12.394;2023-03-03T09:20:35;0.70;99.90
25328;DHT22;13279;51.300;12.394;2023-03-03T09:23:32;0.80;99.90
25328;DHT22;13279;51.300;12.394;2023-03-03T09:26:24;0.80;99.90
25328;DHT22;13279;51.300;12.394;2023-03-03T09:28:54;0.90;99.90
25328;DHT22;13279;51.300;12.394;2023-03-03T09:31:25;0.80;99.90
25328;DHT22;13279;51.300;12.394;2023-03-03T09:33:53;0.80;99.90
25328;DHT22;13279;51.300;12.394;2023-03-03T09:36:26;0.70;99.90
25328;DHT22;13279;51.300;12.394;2023-03-03T09:38:54;0.80;99.90
25328;DHT22;13279;51.300;12.394;2023-03-03T09:44:42;1.00;99.90
25328;DHT22;13279;51.300;12.394;2023-03-03T09:47:54;1.10;99.90
25328;DHT22;13279;51.300;12.394;2023-03-03T09:51:15;1.20;99.90
25328;DHT22;13279;51.300;12.394;2023-03-03T09:54:08;1.20;99.90
25328;DHT22;13279;51.300;12.394;2023-03-03T09:57:02;1.20;99.90
25328;DHT22;13279;51.300;12.394;2023-03-03T09:59:40;1.20;99.90
25328;DHT22;13279;51.300;12.394;2023-03-03T10:02:22;1.20;99.90
25328;DHT22;13279;51.300;12.394;2023-03-03T10:05:11;1.20;99.90
25328;DHT22;13279;51.300;12.394;2023-03-03T10:11:55;1.20;99.90
25328;DHT22;13279;51.300;12.394;2023-03-03T10:18:28;1.40;99.90
25328;DHT22;13279;51.300;12.394;2023-03-03T10:21:06;1.40;99.90
25328;DHT22;13279;51.300;12.394;2023-03-03T10:24:13;1.40;99.90
25328;DHT22;13279;51.300;12.394;2023-03-03T10:27:09;1.40;99.90
25328;DHT22;13279;51.300;12.394;2023-03-03T10:29:44;1.40;99.90
25328;DHT22;13279;51.300;12.394;2023-03-03T10:32:36;1.50;99.90
25328;DHT22;13279;51.300;12.394;2023-03-03T10:35:29;1.60;99.90
25328;DHT22;13279;51.300;12.394;2023-03-03T10:38:14;1.70;99.90
25328;DHT22;13279;51.300;12.394;2023-03-03T10:40:51;1.70;99.90
25328;DHT22;13279;51.300;12.394;2023-03-03T10:43:36;1.80;99.90
25328;DHT22;13279;51.300;12.394;2023-03-03T10:46:19;1.80;99.90
25328;DHT22;13279;51.300;12.394;2023-03-03T10:49:19;1.90;99.90
25328;DHT22;13279;51.300;12.394;2023-03-03T10:52:02;1.90;99.90
25328;DHT22;13279;51.300;12.394;2023-03-03T10:54:50;1.90;99.90
25328;DHT22;13279;51.300;12.394;2023-03-03T10:57:25;1.80;99.90
25328;DHT22;13279;51.300;12.394;2023-03-03T11:00:14;1.80;99.90
25328;DHT22;13279;51.300;12.394;2023-03-03T11:02:54;1.80;99.90
25328;DHT22;13279;51.300;12.394;2023-03-03T11:05:42;1.80;99.90
25328;DHT22;13279;51.300;12.394;2023-03-03T11:08:17;1.80;99.90
25328;DHT22;13279;51.300;12.394;2023-03-03T11:11:04;1.80;99.90
25328;DHT22;13279;51.300;12.394;2023-03-03T11:13:52;1.90;99.90
25328;DHT22;13279;51.300;12.394;2023-03-03T11:16:43;2.00;99.90
25328;DHT22;13279;51.300;12.394;2023-03-03T11:19:34;2.10;99.90
25328;DHT22;13279;51.300;12.394;2023-03-03T11:22:13;2.10;99.90
25328;DHT22;13279;51.300;12.394;2023-03-03T11:24:56;2.10;99.90
25328;DHT22;13279;51.300;12.394;2023-03-03T11:30:28;2.10;99.90
25328;DHT22;13279;51.300;12.394;2023-03-03T11:33:04;2.10;99.90
25328;DHT22;13279;51.300;12.394;2023-03-03T11:35:43;2.20;99.90
25328;DHT22;13279;51.300;12.394;2023-03-03T11:38:31;2.20;99.90
25328;DHT22;13279;51.300;12.394;2023-03-03T11:41:03;2.20;99.90
25328;DHT22;13279;51.300;12.394;2023-03-03T11:57:50;2.30;99.90
25328;DHT22;13279;51.300;12.394;2023-03-03T12:00:27;2.30;99.90
25328;DHT22;13279;51.300;12.394;2023-03-03T12:03:23;2.40;99.90
25328;DHT22;13279;51.300;12.394;2023-03-03T12:05:56;2.40;99.90
25328;DHT22;13279;51.300;12.394;2023-03-03T12:11:47;2.30;99.90
25328;DHT22;13279;51.300;12.394;2023-03-03T12:14:28;2.40;99.90
25328;DHT22;13279;51.300;12.394;2023-03-03T12:17:00;2.40;99.90
25328;DHT22;13279;51.300;12.394;2023-03-03T12:19:35;2.40;99.90
25328;DHT22;13279;51.300;12.394;2023-03-03T12:22:33;2.50;99.90
25328;DHT22;13279;51.300;12.394;2023-03-03T12:25:28;2.60;99.90
25328;DHT22;13279;51.300;12.394;2023-03-03T12:28:03;2.70;99.90
25328;DHT22;13279;51.300;12.394;2023-03-03T12:31:09;2.70;99.90
25328;DHT22;13279;51.300;12.394;2023-03-03T12:33:51;2.70;99.90
25328;DHT22;13279;51.300;12.394;2023-03-03T12:36:39;2.70;99.90
25328;DHT22;13279;51.300;12.394;2023-03-03T12:39:18;2.70;99.90
25328;DHT22;13279;51.300;12.394;2023-03-03T12:41:52;2.60;99.90
25328;DHT22;13279;51.300;12.394;2023-03-03T12:44:32;2.60;99.90
25328;DHT22;13279;51.300;12.394;2023-03-03T12:47:08;2.60;99.90
25328;DHT22;13279;51.300;12.394;2023-03-03T12:49:48;2.60;99.90
25328;DHT22;13279;51.300;12.394;2023-03-03T12:52:24;2.60;99.90
25328;DHT22;13279;51.300;12.394;2023-03-03T12:55:02;2.60;99.90
25328;DHT22;13279;51.300;12.394;2023-03-03T12:57:36;2.70;99.90
25328;DHT22;13279;51.300;12.394;2023-03-03T13:00:23;2.70;99.90
25328;DHT22;13279;51.300;12.394;2023-03-03T13:02:59;2.80;99.90
25328;DHT22;13279;51.300;12.394;2023-03-03T13:05:32;2.90;99.90
25328;DHT22;13279;51.300;12.394;2023-03-03T13:08:30;2.90;99.90
25328;DHT22;13279;51.300;12.394;2023-03-03T13:11:29;2.80;99.90
25328;DHT22;13279;51.300;12.394;2023-03-03T13:14:06;2.80;99.90
25328;DHT22;13279;51.300;12.394;2023-03-03T13:16:40;2.60;99.90
25328;DHT22;13279;51.300;12.394;2023-03-03T13:19:14;2.70;99.90
25328;DHT22;13279;51.300;12.394;2023-03-03T13:21:48;2.70;99.90
25328;DHT22;13279;51.300;12.394;2023-03-03T13:24:20;2.70;99.90
25328;DHT22;13279;51.300;12.394;2023-03-03T13:26:54;2.80;99.90
25328;DHT22;13279;51.300;12.394;2023-03-03T13:29:26;2.80;99.90
25328;DHT22;13279;51.300;12.394;2023-03-03T13:31:59;2.80;99.90
25328;DHT22;13279;51.300;12.394;2023-03-03T13:34:38;2.90;99.90
25328;DHT22;13279;51.300;12.394;2023-03-03T13:37:15;2.90;99.90
25328;DHT22;13279;51.300;12.394;2023-03-03T13:39:54;2.90;99.90
25328;DHT22;13279;51.300;12.394;2023-03-03T13:42:27;2.90;99.90
25328;DHT22;13279;51.300;12.394;2023-03-03T13:44:55;2.90;99.90
25328;DHT22;13279;51.300;12.394;2023-03-03T13:47:29;2.90;99.90
25328;DHT22;13279;51.300;12.394;2023-03-03T13:50:11;2.90;99.90
25328;DHT22;13279;51.300;12.394;2023-03-03T13:52:53;2.80;99.90
25328;DHT22;13279;51.300;12.394;2023-03-03T13:55:29;2.80;99.90
25328;DHT22;13279;51.300;12.394;2023-03-03T13:58:04;2.80;99.90
25328;DHT22;13279;51.300;12.394;2023-03-03T14:00:48;2.80;99.90
25328;DHT22;13279;51.300;12.394;2023-03-03T14:03:52;2.90;99.90
25328;DHT22;13279;51.300;12.394;2023-03-03T14:06:24;2.80;99.90
25328;DHT22;13279;51.300;12.394;2023-03-03T14:09:06;2.70;99.90
25328;DHT22;13279;51.300;12.394;2023-03-03T14:11:41;2.70;99.90
25328;DHT22;13279;51.300;12.394;2023-03-03T14:14:25;2.60;99.90
25328;DHT22;13279;51.300;12.394;2023-03-03T14:17:02;2.60;99.90
25328;DHT22;13279;51.300;12.394;2023-03-03T14:19:33;2.60;99.90
25328;DHT22;13279;51.300;12.394;2023-03-03T14:22:16;2.50;99.90
25328;DHT22;13279;51.300;12.394;2023-03-03T14:25:04;2.50;99.90
25328;DHT22;13279;51.300;12.394;2023-03-03T14:27:34;2.50;99.90
25328;DHT22;13279;51.300;12.394;2023-03-03T14:30:28;2.50;99.90
25328;DHT22;13279;51.300;12.394;2023-03-03T14:33:15;2.60;99.90
25328;DHT22;13279;51.300;12.394;2023-03-03T14:35:50;2.60;99.90
25328;DHT22;13279;51.300;12.394;2023-03-03T14:38:20;2.60;99.90
25328;DHT22;13279;51.300;12.394;2023-03-03T14:41:03;2.60;99.90
25328;DHT22;13279;51.300;12.394;2023-03-03T14:43:35;2.60;99.90
25328;DHT22;13279;51.300;12.394;2023-03-03T14:46:28;2.50;99.90
25328;DHT22;13279;51.300;12.394;2023-03-03T14:48:58;2.60;99.90
25328;DHT22;13279;51.300;12.394;2023-03-03T14:51:28;2.70;99.90
25328;DHT22;13279;51.300;12.394;2023-03-03T14:53:58;2.70;99.90
25328;DHT22;13279;51.300;12.394;2023-03-03T14:56:28;2.80;99.90
25328;DHT22;13279;51.300;12.394;2023-03-03T14:59:16;2.80;99.90
25328;DHT22;13279;51.300;12.394;2023-03-03T15:01:44;2.80;99.90
25328;DHT22;13279;51.300;12.394;2023-03-03T15:04:24;2.80;99.90
25328;DHT22;13279;51.300;12.394;2023-03-03T15:06:53;2.80;99.90
25328;DHT22;13279;51.300;12.394;2023-03-03T15:09:32;2.80;99.90
25328;DHT22;13279;51.300;12.394;2023-03-03T15:12:16;2.80;99.90
25328;DHT22;13279;51.300;12.394;2023-03-03T15:14:45;2.80;99.90
25328;DHT22;13279;51.300;12.394;2023-03-03T15:17:19;2.80;99.90
25328;DHT22;13279;51.300;12.394;2023-03-03T15:19:58;2.70;99.90
25328;DHT22;13279;51.300;12.394;2023-03-03T15:22:43;2.70;99.90
25328;DHT22;13279;51.300;12.394;2023-03-03T15:25:27;2.60;99.90
25328;DHT22;13279;51.300;12.394;2023-03-03T15:28:10;2.70;99.90
25328;DHT22;13279;51.300;12.394;2023-03-03T15:30:47;2.70;99.90
25328;DHT22;13279;51.300;12.394;2023-03-03T15:33:24;2.80;99.90
25328;DHT22;13279;51.300;12.394;2023-03-03T15:36:00;2.80;99.90
25328;DHT22;13279;51.300;12.394;2023-03-03T15:38:37;2.70;99.90
25328;DHT22;13279;51.300;12.394;2023-03-03T15:41:17;2.60;99.90
25328;DHT22;13279;51.300;12.394;2023-03-03T15:43:59;2.60;99.90
25328;DHT22;13279;51.300;12.394;2023-03-03T15:46:39;2.50;99.90
25328;DHT22;13279;51.300;12.394;2023-03-03T15:49:17;2.60;99.90
25328;DHT22;13279;51.300;12.394;2023-03-03T15:52:02;2.60;99.90
25328;DHT22;13279;51.300;12.394;2023-03-03T15:54:40;2.50;99.90
25328;DHT22;13279;51.300;12.394;2023-03-03T15:57:16;2.60;99.90
25328;DHT22;13279;51.300;12.394;2023-03-03T16:00:00;2.60;99.90
25328;DHT22;13279;51.300;12.394;2023-03-03T16:02:45;2.60;99.90
25328;DHT22;13279;51.300;12.394;2023-03-03T16:05:20;2.60;99.90
25328;DHT22;13279;51.300;12.394;2023-03-03T16:07:57;2.60;99.90
25328;DHT22;13279;51.300;12.394;2023-03-03T16:10:35;2.60;99.90
25328;DHT22;13279;51.300;12.394;2023-03-03T16:13:21;2.60;99.90
25328;DHT22;13279;51.300;12.394;2023-03-03T16:15:57;2.70;99.90
25328;DHT22;13279;51.300;12.394;2023-03-03T16:18:38;2.60;99.90
25328;DHT22;13279;51.300;12.394;2023-03-03T16:21:18;2.60;99.90
25328;DHT22;13279;51.300;12.394;2023-03-03T16:23:50;2.60;99.90
25328;DHT22;13279;51.300;12.394;2023-03-03T16:26:34;2.60;99.90
25328;DHT22;13279;51.300;12.394;2023-03-03T16:29:24;2.50;99.90
25328;DHT22;13279;51.300;12.394;2023-03-03T16:31:56;2.50;99.90
25328;DHT22;13279;51.300;12.394;2023-03-03T16:34:32;2.40;99.90
25328;DHT22;13279;51.300;12.394;2023-03-03T16:37:10;2.40;99.90
25328;DHT22;13279;51.300;12.394;2023-03-03T16:39:50;2.40;99.90
25328;DHT22;13279;51.300;12.394;2023-03-03T16:42:24;2.40;99.90
25328;DHT22;13279;51.300;12.394;2023-03-03T16:45:21;2.40;99.90
25328;DHT22;13279;51.300;12.394;2023-03-03T16:50:53;2.40;99.90
25328;DHT22;13279;51.300;12.394;2023-03-03T16:53:34;2.40;99.90
25328;DHT22;13279;51.300;12.394;2023-03-03T16:56:08;2.40;99.90
25328;DHT22;13279;51.300;12.394;2023-03-03T16:58:43;2.40;99.90